createdAt,value
2023-04-23T00:00:00.119Z,991.18
2023-04-23T00:05:00.306Z,991.17
2023-04-23T00:10:00.227Z,991.12
2023-04-23T00:15:00.169Z,991.13
2023-04-23T00:20:00.107Z,991.04
2023-04-23T00:25:00.124Z,991.1
2023-04-23T00:30:00.129Z,991.04
2023-04-23T00:35:00.176Z,991
2023-04-23T00:40:00.098Z,990.98
2023-04-23T00:45:00.124Z,990.98
2023-04-23T00:50:00.152Z,991.11
2023-04-23T00:55:00.118Z,991.07
2023-04-23T01:00:00.195Z,991.1
2023-04-23T01:05:00.138Z,990.98
2023-04-23T01:10:00.208Z,990.94
2023-04-23T01:15:00.135Z,990.93
2023-04-23T01:20:00.133Z,990.9
2023-04-23T01:25:00.132Z,990.97
2023-04-23T01:30:00.177Z,991.04
2023-04-23T01:35:00.131Z,990.95
2023-04-23T01:40:00.103Z,990.86
2023-04-23T01:45:00.091Z,990.71
2023-04-23T01:50:00.207Z,990.84
2023-04-23T01:55:00.129Z,990.74
2023-04-23T02:00:00.175Z,990.71
2023-04-23T02:05:00.137Z,990.65
2023-04-23T02:10:00.158Z,990.66
2023-04-23T02:15:00.095Z,990.65
2023-04-23T02:20:00.161Z,990.54
2023-04-23T02:25:00.114Z,990.54
2023-04-23T02:30:00.154Z,990.51
2023-04-23T02:35:00.120Z,990.54
2023-04-23T02:40:00.165Z,990.52
2023-04-23T02:45:00.131Z,990.32
2023-04-23T02:50:00.165Z,990.4
2023-04-23T02:55:00.129Z,990.44
2023-04-23T03:00:00.222Z,990.42
2023-04-23T03:05:00.154Z,990.42
2023-04-23T03:10:00.125Z,990.48
2023-04-23T03:15:00.145Z,990.4
2023-04-23T03:20:00.184Z,990.34
2023-04-23T03:25:00.094Z,989.84
2023-04-23T03:30:00.172Z,989.87
2023-04-23T03:35:00.094Z,989.86
2023-04-23T03:40:00.131Z,989.86
2023-04-23T03:45:00.141Z,989.79
2023-04-23T03:50:00.147Z,989.85
2023-04-23T03:55:00.155Z,989.82
2023-04-23T04:00:00.153Z,989.88
2023-04-23T04:05:00.215Z,989.85
2023-04-23T04:10:00.159Z,989.88
2023-04-23T04:15:00.123Z,989.82
2023-04-23T04:20:00.118Z,989.84
2023-04-23T04:25:00.155Z,989.99
2023-04-23T04:30:00.155Z,990.07
2023-04-23T04:35:00.122Z,989.93
2023-04-23T04:40:00.133Z,989.95
2023-04-23T04:45:00.101Z,989.94
2023-04-23T04:50:00.133Z,990.03
2023-04-23T04:55:00.097Z,990.04
2023-04-23T05:00:00.145Z,990.08
2023-04-23T05:05:00.113Z,990.01
2023-04-23T05:10:00.103Z,990.16
2023-04-23T05:15:00.115Z,990.09
2023-04-23T05:20:00.096Z,990.12
2023-04-23T05:25:00.098Z,990.24
2023-04-23T05:30:00.143Z,990.2
2023-04-23T05:35:00.127Z,990.25
2023-04-23T05:40:00.132Z,990.27
2023-04-23T05:45:00.083Z,990.38
2023-04-23T05:50:00.136Z,990.39
2023-04-23T05:55:00.122Z,990.41
2023-04-23T06:00:00.146Z,990.49
2023-04-23T06:05:00.268Z,990.56
2023-04-23T06:10:00.182Z,990.67
2023-04-23T06:15:00.089Z,990.64
2023-04-23T06:20:00.114Z,990.67
2023-04-23T06:25:00.122Z,990.72
2023-04-23T06:30:00.155Z,990.67
2023-04-23T06:35:01.794Z,990.69
2023-04-23T06:40:00.138Z,990.75
2023-04-23T06:45:00.086Z,990.78
2023-04-23T06:50:00.123Z,990.83
2023-04-23T06:55:00.069Z,990.83
2023-04-23T07:00:00.153Z,990.71
2023-04-23T07:05:00.124Z,990.81
2023-04-23T07:10:00.193Z,990.74
2023-04-23T07:15:00.147Z,990.77
2023-04-23T07:20:00.135Z,990.71
2023-04-23T07:25:00.184Z,990.88
2023-04-23T07:30:00.147Z,990.95
2023-04-23T07:35:00.112Z,990.99
2023-04-23T07:40:00.109Z,991.08
2023-04-23T07:45:00.119Z,991.11
2023-04-23T07:50:00.205Z,991.07
2023-04-23T07:55:00.114Z,991.05
2023-04-23T08:00:00.168Z,991.09
2023-04-23T08:05:00.295Z,991.03
2023-04-23T08:10:00.156Z,991.02
2023-04-23T08:15:00.164Z,991.13
2023-04-23T08:20:00.157Z,991.19
2023-04-23T08:25:00.146Z,991.19
2023-04-23T08:30:00.128Z,991.29
2023-04-23T08:35:00.121Z,991.3
2023-04-23T08:40:00.094Z,991.27
2023-04-23T08:45:00.099Z,991.23
2023-04-23T08:50:00.192Z,991.35
2023-04-23T08:55:00.130Z,991.48
2023-04-23T09:00:00.118Z,991.42
2023-04-23T09:05:00.131Z,991.47
2023-04-23T09:10:00.182Z,991.49
2023-04-23T09:15:00.119Z,991.47
2023-04-23T09:20:00.141Z,991.36
2023-04-23T09:25:00.137Z,991.41
2023-04-23T09:30:00.340Z,991.45
2023-04-23T09:35:00.131Z,991.48
2023-04-23T09:40:00.126Z,991.41
2023-04-23T09:45:00.120Z,991.39
2023-04-23T09:50:00.192Z,991.35
2023-04-23T09:55:00.135Z,991.4
2023-04-23T10:00:07.164Z,991.37
2023-04-23T10:05:10.412Z,991.36
2023-04-23T10:10:00.141Z,991.3
2023-04-23T10:15:00.111Z,991.26
2023-04-23T10:20:00.159Z,991.33
2023-04-23T10:25:00.124Z,991.24
2023-04-23T10:30:00.188Z,991.27
2023-04-23T10:35:00.132Z,991.26
2023-04-23T10:40:00.165Z,991.27
2023-04-23T10:45:04.948Z,991.35
2023-04-23T10:50:00.198Z,991.21
2023-04-23T10:55:00.404Z,991.1
2023-04-23T11:00:00.155Z,991.02
2023-04-23T11:05:00.142Z,991.09
2023-04-23T11:10:00.179Z,991.11
2023-04-23T11:15:00.181Z,991.12
2023-04-23T11:20:00.115Z,991.2
2023-04-23T11:25:00.191Z,991.18
2023-04-23T11:30:00.433Z,991.15
2023-04-23T11:35:00.149Z,991.15
2023-04-23T11:40:00.129Z,991.13
2023-04-23T11:45:00.109Z,991.02
2023-04-23T11:50:00.168Z,990.99
2023-04-23T11:55:00.143Z,990.97
2023-04-23T12:00:00.150Z,990.9
2023-04-23T12:05:00.172Z,991
2023-04-23T12:10:00.188Z,990.85
2023-04-23T12:15:00.155Z,990.84
2023-04-23T12:20:00.141Z,990.85
2023-04-23T12:25:00.176Z,990.92
2023-04-23T12:30:00.168Z,990.79
2023-04-23T12:35:00.104Z,990.91
2023-04-23T12:40:00.116Z,990.81
2023-04-23T12:45:00.102Z,990.75
2023-04-23T12:50:00.145Z,990.74
2023-04-23T12:55:00.134Z,990.6
2023-04-23T13:00:00.116Z,990.56
2023-04-23T13:05:00.127Z,990.52
2023-04-23T13:10:00.156Z,990.53
2023-04-23T13:15:00.132Z,990.48
2023-04-23T13:20:00.153Z,990.42
2023-04-23T13:25:00.136Z,990.35
2023-04-23T13:30:00.159Z,990.33
2023-04-23T13:35:00.164Z,990.17
2023-04-23T13:40:00.149Z,990.13
2023-04-23T13:45:00.136Z,989.97
2023-04-23T13:50:00.177Z,989.97
2023-04-23T13:55:00.286Z,989.89
2023-04-23T14:00:00.126Z,989.84
2023-04-23T14:05:00.152Z,989.74
2023-04-23T14:10:00.149Z,989.57
2023-04-23T14:15:00.117Z,989.63
2023-04-23T14:20:00.133Z,989.57
2023-04-23T14:25:00.148Z,989.97
2023-04-23T14:30:00.196Z,990.02
2023-04-23T14:35:00.139Z,989.99
2023-04-23T14:40:00.110Z,989.9
2023-04-23T14:45:00.108Z,989.78
2023-04-23T14:50:00.263Z,989.68
2023-04-23T14:55:00.324Z,989.6
2023-04-23T15:00:00.100Z,989.47
2023-04-23T15:05:00.172Z,989.49
2023-04-23T15:10:00.162Z,989.36
2023-04-23T15:15:00.104Z,989.34
2023-04-23T15:20:00.138Z,989.27
2023-04-23T15:25:00.141Z,989.26
2023-04-23T15:30:00.149Z,989.21
2023-04-23T15:35:00.092Z,989.18
2023-04-23T15:40:00.202Z,989.14
2023-04-23T15:45:00.082Z,989.1
2023-04-23T15:50:00.129Z,989.07
2023-04-23T15:55:00.107Z,989.02
2023-04-23T16:00:00.281Z,989
2023-04-23T16:05:00.181Z,988.92
2023-04-23T16:10:00.163Z,988.83
2023-04-23T16:15:00.118Z,988.79
2023-04-23T16:20:00.185Z,988.77
2023-04-23T16:25:00.147Z,988.64
2023-04-23T16:30:00.188Z,988.6
2023-04-23T16:35:00.134Z,988.66
2023-04-23T16:40:00.122Z,988.58
2023-04-23T16:45:00.143Z,988.61
2023-04-23T16:50:00.388Z,988.51
2023-04-23T16:55:00.133Z,988.52
2023-04-23T17:00:00.178Z,988.51
2023-04-23T17:05:00.130Z,988.5
2023-04-23T17:10:00.230Z,988.49
2023-04-23T17:15:00.126Z,988.35
2023-04-23T17:20:00.153Z,988.26
2023-04-23T17:25:00.138Z,988.26
2023-04-23T17:30:00.270Z,988.22
2023-04-23T17:35:09.262Z,988.15
2023-04-23T17:40:00.166Z,988.19
2023-04-23T17:45:00.125Z,988.03
2023-04-23T17:50:00.171Z,987.99
2023-04-23T17:55:00.151Z,987.95
2023-04-23T18:00:00.179Z,987.96
2023-04-23T18:05:00.109Z,987.95
2023-04-23T18:10:00.197Z,987.97
2023-04-23T18:15:00.128Z,988.03
2023-04-23T18:20:00.141Z,988.11
2023-04-23T18:25:00.127Z,988.05
2023-04-23T18:30:00.156Z,988.1
2023-04-23T18:35:00.143Z,988.07
2023-04-23T18:45:00.139Z,988.12
2023-04-23T18:50:00.178Z,988.06
2023-04-23T18:55:00.119Z,988.13
2023-04-23T19:00:00.177Z,988.07
2023-04-23T19:05:00.118Z,988.15
2023-04-23T19:10:00.248Z,987.98
2023-04-23T19:15:00.103Z,988.01
2023-04-23T19:20:00.140Z,987.94
2023-04-23T19:25:00.157Z,987.88
2023-04-23T19:30:00.179Z,987.87
2023-04-23T19:35:00.128Z,987.74
2023-04-23T19:40:00.162Z,987.74
2023-04-23T19:45:00.114Z,987.78
2023-04-23T19:50:00.134Z,987.63
2023-04-23T19:55:00.142Z,987.58
2023-04-23T20:00:00.151Z,987.72
2023-04-23T20:05:00.151Z,987.64
2023-04-23T20:10:00.196Z,987.69
2023-04-23T20:15:00.099Z,987.57
2023-04-23T20:20:00.125Z,987.48
2023-04-23T20:25:00.124Z,986.75
2023-04-23T20:30:00.168Z,987.37
2023-04-23T20:35:00.163Z,987.31
2023-04-23T20:40:00.138Z,987.31
2023-04-23T20:45:00.143Z,987.35
2023-04-23T20:50:00.218Z,987.33
2023-04-23T20:55:00.144Z,987.27
2023-04-23T21:00:00.151Z,987.19
2023-04-23T21:05:00.138Z,987.3
2023-04-23T21:10:00.178Z,987.15
2023-04-23T21:15:00.128Z,987.07
2023-04-23T21:20:00.126Z,987.11
2023-04-23T21:25:00.187Z,987.08
2023-04-23T21:30:00.153Z,987.04
2023-04-23T21:35:00.140Z,987.19
2023-04-23T21:40:00.149Z,987.17
2023-04-23T21:45:00.146Z,987
2023-04-23T21:50:00.150Z,987.01
2023-04-23T21:55:00.119Z,986.91
2023-04-23T22:00:00.153Z,986.96
2023-04-23T22:05:00.119Z,986.93
2023-04-23T22:10:00.232Z,986.89
2023-04-23T22:15:00.157Z,986.94
2023-04-23T22:20:00.148Z,986.79
2023-04-23T22:25:00.183Z,986.83
2023-04-23T22:30:00.149Z,986.8
2023-04-23T22:35:00.185Z,986.69
2023-04-23T22:40:00.223Z,986.64
2023-04-23T22:45:00.121Z,986.68
2023-04-23T22:50:00.147Z,986.76
2023-04-23T22:55:00.104Z,986.9
2023-04-23T23:00:00.158Z,986.9
2023-04-23T23:05:00.154Z,986.94
2023-04-23T23:10:00.152Z,986.89
2023-04-23T23:15:00.183Z,986.97
2023-04-23T23:20:00.180Z,986.93
2023-04-23T23:25:00.119Z,986.79
2023-04-23T23:30:00.142Z,986.81
2023-04-23T23:35:00.112Z,986.65
2023-04-23T23:40:00.209Z,986.56
2023-04-23T23:45:00.130Z,986.49
2023-04-23T23:50:00.187Z,986.48
2023-04-23T23:55:00.149Z,986.49
